Time;durP1;ratioP1;P1;durP2;ratioP2;P2;SDS_P1;SDS_P2;PMS_P1;PMS_P2;Temp;Humidity;BMP_temperature;BMP_pressure;BME280_temperature;BME280_humidity;BME280_pressure;Samples;Min_cycle;Max_cycle;Signal;HPM_P1;HPM_P2
2022/05/24 00:00:35;;;;;;;;;;;14.60;63.20;;;;;;5086960;28;19908;-59
2022/05/24 00:03:01;;;;;;;;;;;14.60;62.50;;;;;;5089988;28;19912;-59
2022/05/24 00:05:27;;;;;;;;;;;14.60;62.50;;;;;;5089648;28;20042;-60
2022/05/24 00:07:52;;;;;;;;;;;14.60;62.40;;;;;;5090070;28;19915;-59
2022/05/24 00:10:20;;;;;;;;;;;14.60;62.40;;;;;;5088517;28;19999;-59
2022/05/24 00:12:46;;;;;;;;;;;14.50;63.10;;;;;;5091027;28;19912;-59
2022/05/24 00:15:19;;;;;;;;;;;14.50;62.40;;;;;;5087785;28;19918;-59
2022/05/24 00:17:50;;;;;;;;;;;14.50;62.50;;;;;;5088833;28;20236;-60
2022/05/24 00:20:15;;;;;;;;;;;14.50;62.50;;;;;;5088416;28;19993;-60
2022/05/24 00:22:41;;;;;;;;;;;14.50;62.50;;;;;;5089466;28;20386;-59
2022/05/24 00:25:07;;;;;;;;;;;14.40;62.50;;;;;;5089429;28;19994;-59
2022/05/24 00:27:32;;;;;;;;;;;14.40;62.70;;;;;;5089377;28;19908;-59
2022/05/24 00:29:58;;;;;;;;;;;14.40;62.70;;;;;;5089371;28;19911;-59
2022/05/24 00:32:24;;;;;;;;;;;14.40;62.70;;;;;;5088169;28;19987;-59
2022/05/24 00:34:49;;;;;;;;;;;14.40;62.60;;;;;;5090732;28;19947;-59
2022/05/24 00:37:16;;;;;;;;;;;14.40;62.70;;;;;;5092059;28;19953;-59
2022/05/24 00:39:42;;;;;;;;;;;14.40;62.60;;;;;;5088498;28;19931;-59
2022/05/24 00:42:10;;;;;;;;;;;14.40;62.70;;;;;;5090930;28;19912;-59
2022/05/24 00:44:38;;;;;;;;;;;14.40;63.40;;;;;;5087045;28;19915;-59
2022/05/24 00:47:16;;;;;;;;;;;14.30;62.70;;;;;;5089719;28;19999;-59
2022/05/24 00:49:45;;;;;;;;;;;14.30;62.70;;;;;;5085164;28;19915;-59
2022/05/24 00:52:13;;;;;;;;;;;14.30;62.80;;;;;;5089686;28;20310;-59
2022/05/24 00:54:39;;;;;;;;;;;14.30;62.80;;;;;;5089814;28;19990;-59
2022/05/24 00:57:22;;;;;;;;;;;14.30;62.90;;;;;;5087839;28;20396;-59
2022/05/24 01:00:06;;;;;;;;;;;14.20;62.90;;;;;;5089865;28;19916;-59
2022/05/24 01:02:32;;;;;;;;;;;14.20;63.00;;;;;;5087002;28;19912;-59
2022/05/24 01:04:58;;;;;;;;;;;14.20;63.10;;;;;;5089539;28;19911;-59
2022/05/24 01:07:24;;;;;;;;;;;14.20;63.20;;;;;;5090138;28;20393;-59
2022/05/24 01:09:53;;;;;;;;;;;14.20;63.40;;;;;;5087545;28;19922;-59
2022/05/24 01:12:21;;;;;;;;;;;14.20;63.40;;;;;;5089633;28;19916;-59
2022/05/24 01:14:47;;;;;;;;;;;14.10;63.40;;;;;;5090554;28;19908;-59
2022/05/24 01:17:12;;;;;;;;;;;14.10;63.50;;;;;;5092528;28;20372;-59
2022/05/24 01:19:43;;;;;;;;;;;14.10;63.60;;;;;;5086783;28;19954;-59
2022/05/24 01:22:27;;;;;;;;;;;14.10;63.70;;;;;;5090324;28;19931;-63
2022/05/24 01:25:02;;;;;;;;;;;14.00;63.70;;;;;;5088459;28;19951;-59
2022/05/24 01:27:28;;;;;;;;;;;14.00;63.80;;;;;;5090307;28;19926;-59
2022/05/24 01:29:53;;;;;;;;;;;14.00;63.80;;;;;;5089660;28;19908;-59
2022/05/24 01:37:47;;;;;;;;;;;13.90;63.90;;;;;;5089096;28;20437;-59
2022/05/24 01:40:13;;;;;;;;;;;13.90;64.00;;;;;;5089710;28;19908;-59
2022/05/24 01:42:39;;;;;;;;;;;13.90;64.00;;;;;;5087245;28;19908;-58
2022/05/24 01:45:11;;;;;;;;;;;13.90;64.10;;;;;;5089909;28;19951;-59
2022/05/24 01:47:38;;;;;;;;;;;13.90;64.10;;;;;;5087453;28;19908;-59
2022/05/24 01:50:06;;;;;;;;;;;13.90;64.10;;;;;;5084765;28;19908;-59
2022/05/24 01:52:34;;;;;;;;;;;13.80;64.00;;;;;;5089287;28;19964;-59
2022/05/24 01:55:03;;;;;;;;;;;13.80;64.10;;;;;;5089274;28;19987;-59
2022/05/24 01:57:31;;;;;;;;;;;13.80;64.10;;;;;;5089224;28;19908;-59
2022/05/24 01:59:58;;;;;;;;;;;13.80;64.20;;;;;;5085935;28;19908;-59
2022/05/24 02:02:24;;;;;;;;;;;13.80;64.10;;;;;;5088250;28;19908;-59
2022/05/24 02:04:49;;;;;;;;;;;13.80;64.10;;;;;;5085627;28;19912;-59
2022/05/24 02:07:17;;;;;;;;;;;13.80;64.10;;;;;;5089547;28;20056;-59
2022/05/24 02:09:47;;;;;;;;;;;13.70;64.20;;;;;;5088441;28;19980;-59
2022/05/24 02:12:28;;;;;;;;;;;13.80;64.20;;;;;;5066197;28;19916;-59
2022/05/24 02:14:57;;;;;;;;;;;13.70;64.20;;;;;;5091759;28;19923;-59
2022/05/24 02:17:24;;;;;;;;;;;13.70;64.20;;;;;;5093873;28;19908;-59
2022/05/24 02:19:51;;;;;;;;;;;13.70;64.20;;;;;;5091024;28;19912;-59
2022/05/24 02:22:23;;;;;;;;;;;13.80;64.20;;;;;;5093351;28;19993;-59
2022/05/24 02:24:56;;;;;;;;;;;13.80;64.20;;;;;;5091464;28;19908;-59
2022/05/24 02:27:22;;;;;;;;;;;13.80;64.20;;;;;;5092194;28;20010;-59
2022/05/24 02:29:48;;;;;;;;;;;13.80;64.10;;;;;;5091825;28;19943;-59
2022/05/24 02:32:13;;;;;;;;;;;13.70;64.50;;;;;;5093169;28;19923;-59
2022/05/24 02:34:39;;;;;;;;;;;13.70;64.20;;;;;;5089988;28;19912;-59
2022/05/24 02:37:04;;;;;;;;;;;13.80;64.10;;;;;;5093161;28;19961;-59
2022/05/24 02:41:28;;;;;;;;;;;13.80;64.20;;;;;;5090128;28;19912;-59
2022/05/24 02:42:16;;;;;;;;;;;13.80;64.10;;;;;;5087844;28;19908;-59
2022/05/24 02:44:41;;;;;;;;;;;13.80;64.80;;;;;;5090774;28;19911;-59
2022/05/24 02:47:07;;;;;;;;;;;13.90;64.10;;;;;;5091747;28;19915;-59
2022/05/24 02:49:32;;;;;;;;;;;13.90;64.10;;;;;;5091532;28;20389;-59
2022/05/24 02:51:58;;;;;;;;;;;13.90;64.70;;;;;;5090018;28;19912;-59
2022/05/24 02:54:23;;;;;;;;;;;13.90;64.10;;;;;;5092349;28;19912;-59
2022/05/24 02:56:49;;;;;;;;;;;13.90;64.00;;;;;;5089950;28;19968;-59
2022/05/24 02:59:14;;;;;;;;;;;14.00;64.10;;;;;;5090960;28;19955;-59
2022/05/24 03:01:40;;;;;;;;;;;14.10;64.10;;;;;;5091022;28;20431;-59
2022/05/24 03:04:06;;;;;;;;;;;14.10;64.20;;;;;;5089795;28;19908;-59
2022/05/24 03:09:33;;;;;;;;;;;14.10;64.10;;;;;;5089821;28;19961;-59
2022/05/24 03:09:35;;;;;;;;;;;14.20;64.30;;;;;;5091639;28;19993;-59
2022/05/24 03:14:48;;;;;;;;;;;14.30;64.40;;;;;;5089224;28;19961;-59
2022/05/24 03:17:15;;;;;;;;;;;14.40;64.40;;;;;;5088395;28;19908;-59
2022/05/24 03:19:41;;;;;;;;;;;14.50;64.60;;;;;;5090765;28;19908;-59
2022/05/24 03:22:09;;;;;;;;;;;14.60;64.90;;;;;;5087825;28;19973;-59
2022/05/24 03:24:37;;;;;;;;;;;14.80;65.10;;;;;;5088739;28;20245;-59
2022/05/24 03:27:07;;;;;;;;;;;14.90;65.20;;;;;;5090055;28;20008;-59
2022/05/24 03:29:34;;;;;;;;;;;15.10;65.50;;;;;;5087988;28;20378;-59
2022/05/24 03:31:59;;;;;;;;;;;15.40;65.50;;;;;;5089746;28;19912;-59
2022/05/24 03:34:25;;;;;;;;;;;15.60;65.50;;;;;;5090326;28;20321;-59
2022/05/24 03:36:50;;;;;;;;;;;16.00;66.00;;;;;;5090242;28;19999;-59
2022/05/24 03:39:16;;;;;;;;;;;16.40;66.00;;;;;;5088741;28;19909;-59
2022/05/24 03:41:44;;;;;;;;;;;16.80;65.90;;;;;;5088711;28;19907;-59
2022/05/24 03:44:09;;;;;;;;;;;17.40;65.70;;;;;;5091329;28;19939;-59
2022/05/24 03:46:35;;;;;;;;;;;18.00;65.00;;;;;;5090282;28;19943;-61
2022/05/24 03:49:01;;;;;;;;;;;18.70;64.50;;;;;;5091800;28;19908;-60
2022/05/24 03:51:26;;;;;;;;;;;19.60;64.00;;;;;;5087375;28;19939;-59
2022/05/24 03:53:52;;;;;;;;;;;20.60;62.60;;;;;;5088255;28;20287;-60
2022/05/24 03:56:17;;;;;;;;;;;21.60;61.40;;;;;;5086788;28;19912;-60
2022/05/24 03:58:43;;;;;;;;;;;22.50;60.10;;;;;;5088438;28;19912;-60
2022/05/24 04:01:08;;;;;;;;;;;23.40;58.60;;;;;;5087686;28;20413;-58
2022/05/24 04:03:35;;;;;;;;;;;24.20;57.60;;;;;;5089521;28;19908;-58
2022/05/24 04:06:01;;;;;;;;;;;24.90;56.20;;;;;;5091525;28;19911;-58
2022/05/24 04:08:29;;;;;;;;;;;25.60;55.70;;;;;;5090175;28;20245;-58
2022/05/24 04:11:06;;;;;;;;;;;26.30;55.20;;;;;;5089615;28;19916;-60
2022/05/24 04:13:32;;;;;;;;;;;26.90;54.10;;;;;;5090136;28;19998;-60
2022/05/24 04:15:57;;;;;;;;;;;27.50;53.60;;;;;;5089997;28;20011;-59
2022/05/24 04:18:23;;;;;;;;;;;28.00;53.40;;;;;;5088643;28;20406;-59
2022/05/24 04:20:48;;;;;;;;;;;28.50;52.80;;;;;;5085060;28;20267;-58
2022/05/24 04:23:14;;;;;;;;;;;29.00;52.10;;;;;;5089213;28;19959;-60
2022/05/24 04:25:40;;;;;;;;;;;29.40;51.70;;;;;;5088289;28;20329;-60
2022/05/24 04:28:06;;;;;;;;;;;29.80;51.50;;;;;;5091376;28;19991;-60
2022/05/24 04:30:32;;;;;;;;;;;30.10;50.90;;;;;;5088263;28;19915;-59
2022/05/24 04:32:57;;;;;;;;;;;30.50;50.40;;;;;;5088222;28;19916;-60
2022/05/24 04:35:23;;;;;;;;;;;30.90;50.00;;;;;;5089566;28;19908;-59
2022/05/24 04:37:49;;;;;;;;;;;31.20;49.70;;;;;;5073185;28;19908;-60
2022/05/24 04:40:15;;;;;;;;;;;31.50;49.30;;;;;;5090440;28;19907;-60
2022/05/24 04:42:40;;;;;;;;;;;31.70;49.20;;;;;;5089376;28;19919;-60
2022/05/24 04:45:08;;;;;;;;;;;32.00;49.00;;;;;;5089692;28;19915;-60
2022/05/24 04:47:34;;;;;;;;;;;32.30;48.70;;;;;;5090651;28;19915;-60
2022/05/24 04:50:00;;;;;;;;;;;32.40;48.50;;;;;;5089625;28;19989;-60
2022/05/24 04:52:36;;;;;;;;;;;32.60;48.00;;;;;;5091316;28;19934;-60
2022/05/24 04:55:04;;;;;;;;;;;32.80;48.00;;;;;;5084153;28;19940;-60
2022/05/24 04:57:29;;;;;;;;;;;33.00;47.60;;;;;;5089914;28;20256;-60
2022/05/24 04:59:55;;;;;;;;;;;33.10;47.30;;;;;;5088602;28;19973;-60
2022/05/24 05:02:21;;;;;;;;;;;33.20;47.00;;;;;;5089531;28;19908;-60
2022/05/24 05:04:47;;;;;;;;;;;33.20;47.10;;;;;;5087718;28;19916;-60
2022/05/24 05:07:12;;;;;;;;;;;33.30;46.80;;;;;;5089342;28;19977;-59
2022/05/24 05:09:38;;;;;;;;;;;33.40;46.40;;;;;;5089619;28;19908;-60
2022/05/24 05:12:05;;;;;;;;;;;33.40;46.50;;;;;;5089992;28;19934;-60
2022/05/24 05:14:31;;;;;;;;;;;33.50;46.30;;;;;;5091027;28;19907;-60
2022/05/24 05:16:56;;;;;;;;;;;33.50;45.70;;;;;;5089400;28;19923;-60
2022/05/24 05:19:22;;;;;;;;;;;33.50;45.20;;;;;;5089753;28;20010;-60
2022/05/24 05:21:47;;;;;;;;;;;33.30;44.20;;;;;;5086831;28;19915;-60
2022/05/24 05:24:13;;;;;;;;;;;32.80;43.80;;;;;;5087472;28;19915;-60
2022/05/24 05:26:38;;;;;;;;;;;32.20;44.40;;;;;;5086812;28;19931;-59
2022/05/24 05:29:04;;;;;;;;;;;31.20;44.30;;;;;;5089152;28;19985;-60
2022/05/24 05:31:29;;;;;;;;;;;30.20;44.70;;;;;;5088564;28;20356;-60
2022/05/24 05:33:56;;;;;;;;;;;29.20;45.50;;;;;;5085670;28;20326;-60
2022/05/24 05:36:24;;;;;;;;;;;28.20;45.70;;;;;;5083401;28;19923;-60
2022/05/24 05:38:50;;;;;;;;;;;27.30;46.40;;;;;;5082411;28;19970;-60
2022/05/24 05:41:17;;;;;;;;;;;26.40;47.20;;;;;;5082279;28;19976;-60
2022/05/24 05:43:43;;;;;;;;;;;25.70;47.60;;;;;;5083853;28;19987;-60
2022/05/24 05:46:09;;;;;;;;;;;25.00;48.30;;;;;;5084410;28;19938;-60
2022/05/24 05:48:35;;;;;;;;;;;24.50;49.20;;;;;;5087575;28;20390;-60
2022/05/24 05:51:01;;;;;;;;;;;24.10;49.70;;;;;;5086866;28;19908;-60
2022/05/24 05:53:26;;;;;;;;;;;23.70;50.00;;;;;;5083117;28;22249;-60
2022/05/24 05:55:52;;;;;;;;;;;23.30;50.30;;;;;;5082912;28;20006;-59
2022/05/24 05:58:18;;;;;;;;;;;23.00;50.60;;;;;;5080081;28;20488;-59
2022/05/24 06:00:43;;;;;;;;;;;22.70;50.90;;;;;;5085081;28;20295;-60
2022/05/24 06:03:09;;;;;;;;;;;22.50;51.10;;;;;;5074494;28;19920;-59
2022/05/24 06:05:35;;;;;;;;;;;22.30;51.50;;;;;;5080047;28;20016;-59
2022/05/24 06:08:01;;;;;;;;;;;22.10;51.60;;;;;;5073000;28;19912;-60
2022/05/24 06:10:28;;;;;;;;;;;21.90;51.70;;;;;;5079385;28;20506;-59
2022/05/24 06:12:55;;;;;;;;;;;21.80;51.90;;;;;;5086813;28;20045;-58
2022/05/24 06:15:20;;;;;;;;;;;21.60;52.00;;;;;;5076069;28;19923;-59
2022/05/24 06:17:48;;;;;;;;;;;21.50;52.20;;;;;;5077193;28;20464;-58
2022/05/24 06:20:14;;;;;;;;;;;21.30;52.20;;;;;;5081833;28;19964;-58
2022/05/24 06:22:39;;;;;;;;;;;21.30;52.30;;;;;;5086091;28;20356;-59
2022/05/24 06:25:05;;;;;;;;;;;21.20;52.30;;;;;;5085528;28;19919;-58
2022/05/24 06:27:31;;;;;;;;;;;21.10;52.20;;;;;;5080547;28;19915;-58
2022/05/24 06:29:56;;;;;;;;;;;21.00;52.50;;;;;;5085182;28;20011;-59
2022/05/24 06:32:22;;;;;;;;;;;20.90;52.40;;;;;;5084853;28;20058;-58
2022/05/24 06:34:49;;;;;;;;;;;20.90;52.50;;;;;;5086095;28;21478;-59
2022/05/24 06:37:15;;;;;;;;;;;20.80;52.50;;;;;;5085357;28;19923;-59
2022/05/24 06:39:41;;;;;;;;;;;20.80;52.40;;;;;;5083973;28;19964;-59
2022/05/24 06:42:07;;;;;;;;;;;20.80;52.00;;;;;;5082246;28;20391;-59
2022/05/24 06:44:32;;;;;;;;;;;20.70;52.40;;;;;;5083458;28;19944;-59
2022/05/24 06:46:58;;;;;;;;;;;20.70;52.20;;;;;;5083906;28;19915;-59
2022/05/24 06:49:23;;;;;;;;;;;20.60;52.20;;;;;;5082137;28;19912;-58
2022/05/24 06:51:49;;;;;;;;;;;20.60;52.10;;;;;;5077865;28;19919;-60
2022/05/24 06:54:14;;;;;;;;;;;20.60;52.10;;;;;;5075627;28;19935;-58
2022/05/24 06:56:40;;;;;;;;;;;20.50;52.10;;;;;;5080761;28;19969;-58
2022/05/24 07:04:34;;;;;;;;;;;20.50;52.00;;;;;;5077348;28;20351;-59
2022/05/24 07:06:59;;;;;;;;;;;20.60;52.00;;;;;;5078042;28;19991;-59
2022/05/24 07:09:29;;;;;;;;;;;20.50;51.80;;;;;;5077131;28;20037;-59
2022/05/24 07:11:55;;;;;;;;;;;20.60;51.90;;;;;;5081104;28;19916;-58
2022/05/24 07:14:20;;;;;;;;;;;20.50;51.70;;;;;;5078933;28;20713;-59
2022/05/24 07:16:46;;;;;;;;;;;20.60;51.70;;;;;;5078948;28;19916;-59
2022/05/24 07:19:11;;;;;;;;;;;20.60;51.80;;;;;;5082181;28;19941;-59
2022/05/24 07:21:37;;;;;;;;;;;20.60;51.90;;;;;;5082910;28;19915;-57
2022/05/24 07:24:02;;;;;;;;;;;20.60;51.70;;;;;;5077148;28;19908;-59
2022/05/24 07:26:28;;;;;;;;;;;20.60;51.20;;;;;;5083417;28;19931;-57
2022/05/24 07:28:53;;;;;;;;;;;20.60;51.20;;;;;;5075303;28;19915;-58
2022/05/24 07:31:19;;;;;;;;;;;20.60;51.30;;;;;;5070927;28;20594;-59
2022/05/24 07:33:45;;;;;;;;;;;20.60;51.20;;;;;;5078285;28;19940;-59
2022/05/24 07:36:11;;;;;;;;;;;20.60;51.20;;;;;;5080981;28;20018;-58
2022/05/24 07:38:38;;;;;;;;;;;20.60;50.80;;;;;;5081451;28;19911;-59
2022/05/24 07:46:32;;;;;;;;;;;20.60;50.30;;;;;;5079473;28;19915;-58
2022/05/24 07:48:58;;;;;;;;;;;20.60;50.20;;;;;;5077443;28;19912;-59
2022/05/24 07:51:24;;;;;;;;;;;20.60;49.80;;;;;;5071269;28;20007;-60
2022/05/24 07:53:49;;;;;;;;;;;20.60;49.50;;;;;;5076693;28;19965;-57
2022/05/24 07:56:16;;;;;;;;;;;20.70;49.40;;;;;;5079586;28;20683;-58
2022/05/24 07:58:43;;;;;;;;;;;20.70;49.20;;;;;;5076744;28;20034;-57
2022/05/24 08:01:10;;;;;;;;;;;20.70;48.80;;;;;;5073763;28;20482;-59
2022/05/24 08:03:36;;;;;;;;;;;20.70;48.90;;;;;;5071628;28;19969;-58
2022/05/24 08:06:01;;;;;;;;;;;20.70;48.60;;;;;;5068298;28;19916;-57
2022/05/24 08:08:27;;;;;;;;;;;20.70;48.60;;;;;;5071774;28;19939;-58
2022/05/24 08:10:53;;;;;;;;;;;20.60;48.40;;;;;;5074381;28;19919;-58
2022/05/24 08:13:19;;;;;;;;;;;20.60;48.20;;;;;;5074808;28;19918;-59
2022/05/24 08:15:45;;;;;;;;;;;20.60;48.30;;;;;;5075778;28;19927;-58
2022/05/24 08:18:11;;;;;;;;;;;20.60;48.10;;;;;;5077496;28;19916;-58
2022/05/24 08:20:37;;;;;;;;;;;20.60;48.00;;;;;;5077153;28;19922;-58
2022/05/24 08:23:02;;;;;;;;;;;20.50;47.60;;;;;;5082353;28;20004;-58
2022/05/24 08:25:30;;;;;;;;;;;20.50;47.10;;;;;;5079199;28;19924;-58
2022/05/24 08:27:58;;;;;;;;;;;20.50;47.30;;;;;;5075748;28;19908;-58
2022/05/24 08:30:24;;;;;;;;;;;20.40;47.20;;;;;;5070186;28;19916;-58
2022/05/24 08:32:50;;;;;;;;;;;20.30;47.40;;;;;;5061519;28;19924;-58
2022/05/24 08:35:17;;;;;;;;;;;20.30;47.30;;;;;;5069384;28;20398;-58
2022/05/24 08:37:43;;;;;;;;;;;20.30;47.60;;;;;;5071463;28;19912;-58
2022/05/24 08:40:10;;;;;;;;;;;20.20;47.60;;;;;;5079323;28;19916;-59
2022/05/24 08:42:55;;;;;;;;;;;20.20;47.30;;;;;;5068290;28;20356;-59
2022/05/24 08:48:23;;;;;;;;;;;20.10;47.40;;;;;;5076875;28;19960;-57
2022/05/24 08:50:51;;;;;;;;;;;20.00;47.50;;;;;;5071120;28;19916;-59
2022/05/24 08:53:32;;;;;;;;;;;20.00;47.30;;;;;;5076214;28;19916;-59
2022/05/24 08:55:58;;;;;;;;;;;19.90;46.40;;;;;;5071506;28;19970;-60
2022/05/24 08:58:29;;;;;;;;;;;19.90;46.40;;;;;;5073849;28;20015;-59
2022/05/24 09:00:56;;;;;;;;;;;19.80;46.50;;;;;;5064298;28;20311;-60
2022/05/24 09:03:25;;;;;;;;;;;19.80;46.70;;;;;;5068730;28;19912;-58
2022/05/24 09:06:17;;;;;;;;;;;19.70;46.50;;;;;;5044823;28;19957;-58
2022/05/24 09:09:02;;;;;;;;;;;19.70;46.80;;;;;;5064807;28;20471;-59
2022/05/24 09:11:46;;;;;;;;;;;19.70;47.40;;;;;;5068856;28;20018;-58
2022/05/24 09:14:20;;;;;;;;;;;19.70;46.80;;;;;;5070135;28;20003;-58
2022/05/24 09:16:51;;;;;;;;;;;19.60;46.90;;;;;;5061288;28;19919;-59
2022/05/24 09:19:23;;;;;;;;;;;19.60;47.10;;;;;;5064347;28;19918;-58
2022/05/24 09:21:52;;;;;;;;;;;19.60;46.90;;;;;;5070569;28;19916;-58
2022/05/24 09:24:21;;;;;;;;;;;19.50;46.70;;;;;;5071223;28;20014;-58
2022/05/24 09:27:07;;;;;;;;;;;19.50;46.70;;;;;;5071173;28;19928;-58
2022/05/24 09:29:32;;;;;;;;;;;19.50;46.70;;;;;;5064323;28;20349;-58
2022/05/24 09:31:59;;;;;;;;;;;19.40;46.50;;;;;;5066284;28;19916;-58
2022/05/24 09:34:28;;;;;;;;;;;19.40;46.90;;;;;;5066007;28;19919;-58
2022/05/24 09:36:56;;;;;;;;;;;19.40;46.90;;;;;;5071982;28;20497;-58
2022/05/24 09:39:35;;;;;;;;;;;19.30;47.10;;;;;;5071774;28;20302;-59
2022/05/24 09:42:13;;;;;;;;;;;19.30;47.30;;;;;;5055701;28;19923;-58
2022/05/24 09:44:43;;;;;;;;;;;19.30;47.20;;;;;;5056252;28;19984;-58
2022/05/24 09:47:27;;;;;;;;;;;19.30;47.00;;;;;;5057720;28;20492;-58
2022/05/24 09:49:54;;;;;;;;;;;19.30;47.70;;;;;;5063319;28;19994;-58
2022/05/24 09:52:20;;;;;;;;;;;19.20;46.90;;;;;;5065396;28;19916;-58
2022/05/24 09:55:04;;;;;;;;;;;19.20;46.90;;;;;;5066978;28;19915;-58
2022/05/24 09:57:32;;;;;;;;;;;19.20;47.00;;;;;;5065700;28;19915;-58
2022/05/24 10:00:09;;;;;;;;;;;19.20;47.10;;;;;;5067679;28;20005;-58
2022/05/24 10:02:36;;;;;;;;;;;19.20;47.10;;;;;;5069487;28;19912;-59
2022/05/24 10:05:16;;;;;;;;;;;19.20;47.20;;;;;;5063693;28;19953;-59
2022/05/24 10:07:52;;;;;;;;;;;19.20;46.70;;;;;;5068043;28;19911;-59
2022/05/24 10:10:21;;;;;;;;;;;19.10;46.90;;;;;;5066530;28;19952;-59
2022/05/24 10:13:05;;;;;;;;;;;19.10;46.90;;;;;;5073321;28;19924;-59
2022/05/24 10:15:43;;;;;;;;;;;19.10;46.90;;;;;;5072868;28;19916;-59
2022/05/24 10:18:27;;;;;;;;;;;19.10;47.20;;;;;;5064440;28;21289;-59
2022/05/24 10:21:02;;;;;;;;;;;19.10;47.30;;;;;;5066071;28;19912;-59
2022/05/24 10:23:40;;;;;;;;;;;19.10;46.80;;;;;;5070051;28;23189;-59
2022/05/24 10:26:26;;;;;;;;;;;19.00;46.60;;;;;;5069320;28;19959;-59
2022/05/24 10:28:52;;;;;;;;;;;19.10;46.70;;;;;;5052500;28;20303;-60
2022/05/24 10:31:36;;;;;;;;;;;19.00;46.70;;;;;;5069503;28;19920;-59
2022/05/24 10:39:50;;;;;;;;;;;19.00;46.10;;;;;;5078100;28;19914;-58
2022/05/24 10:42:48;;;;;;;;;;;19.00;46.50;;;;;;5077640;28;19916;-59
2022/05/24 10:45:16;;;;;;;;;;;19.00;46.80;;;;;;5029226;28;19920;-58
2022/05/24 10:47:49;;;;;;;;;;;19.00;46.40;;;;;;5076138;28;20363;-58
2022/05/24 10:50:18;;;;;;;;;;;19.00;46.60;;;;;;5073764;28;19916;-59
2022/05/24 10:53:15;;;;;;;;;;;19.00;46.40;;;;;;5072972;28;19978;-59
2022/05/24 10:55:46;;;;;;;;;;;19.00;46.40;;;;;;5027327;28;20915;-58
2022/05/24 10:58:15;;;;;;;;;;;19.00;46.30;;;;;;5073694;28;19985;-58
2022/05/24 11:00:44;;;;;;;;;;;19.00;46.50;;;;;;5063434;28;19931;-58
2022/05/24 11:03:12;;;;;;;;;;;19.00;46.40;;;;;;5069984;28;19912;-58
2022/05/24 11:05:47;;;;;;;;;;;19.00;46.50;;;;;;5072689;28;20279;-59
2022/05/24 11:08:25;;;;;;;;;;;19.00;46.30;;;;;;5070092;28;19915;-58
2022/05/24 11:10:51;;;;;;;;;;;19.00;46.20;;;;;;5074519;28;19916;-59
2022/05/24 11:13:20;;;;;;;;;;;19.00;46.50;;;;;;5062569;28;19927;-56
2022/05/24 11:15:48;;;;;;;;;;;19.00;46.70;;;;;;5071048;28;19962;-58
2022/05/24 11:18:17;;;;;;;;;;;19.00;46.20;;;;;;5074888;28;19908;-59
2022/05/24 11:20:51;;;;;;;;;;;19.00;46.60;;;;;;5073218;28;19935;-59
2022/05/24 11:23:19;;;;;;;;;;;19.00;46.40;;;;;;5075398;28;19911;-58
2022/05/24 11:25:49;;;;;;;;;;;19.00;46.60;;;;;;5083243;28;19926;-59
2022/05/24 11:28:14;;;;;;;;;;;19.00;46.30;;;;;;5072124;28;20813;-59
2022/05/24 11:30:41;;;;;;;;;;;19.00;46.40;;;;;;5070263;28;19927;-59
2022/05/24 11:33:11;;;;;;;;;;;19.00;46.50;;;;;;5075049;28;20512;-60
2022/05/24 11:35:38;;;;;;;;;;;19.00;46.40;;;;;;5056400;28;19923;-59
2022/05/24 11:38:13;;;;;;;;;;;19.00;46.40;;;;;;5067892;28;20028;-59
2022/05/24 11:40:40;;;;;;;;;;;19.00;46.20;;;;;;5069709;28;20372;-60
2022/05/24 11:43:10;;;;;;;;;;;19.00;46.40;;;;;;5058361;28;19962;-60
2022/05/24 11:45:53;;;;;;;;;;;19.00;46.00;;;;;;5063664;28;19916;-59
2022/05/24 11:48:19;;;;;;;;;;;19.00;46.00;;;;;;5065798;28;20359;-59
2022/05/24 11:50:45;;;;;;;;;;;18.90;45.70;;;;;;5060284;28;19916;-59
2022/05/24 11:53:11;;;;;;;;;;;19.00;46.10;;;;;;5056500;28;19916;-59
2022/05/24 11:55:57;;;;;;;;;;;19.00;45.60;;;;;;5067204;28;19916;-59
2022/05/24 11:58:22;;;;;;;;;;;19.00;45.70;;;;;;5044347;28;19934;-60
2022/05/24 12:01:03;;;;;;;;;;;19.00;45.60;;;;;;5065119;28;19912;-59
2022/05/24 12:09:11;;;;;;;;;;;19.00;46.00;;;;;;5067497;28;20844;-60
2022/05/24 12:11:37;;;;;;;;;;;19.00;45.20;;;;;;5066390;28;19920;-58
2022/05/24 12:14:12;;;;;;;;;;;19.00;45.10;;;;;;5066879;28;20459;-59
2022/05/24 12:16:39;;;;;;;;;;;19.00;45.00;;;;;;5066069;28;19920;-60
2022/05/24 12:19:07;;;;;;;;;;;19.00;45.10;;;;;;5065576;28;19919;-56
2022/05/24 12:21:47;;;;;;;;;;;19.00;44.90;;;;;;5066598;28;19922;-58
2022/05/24 12:24:42;;;;;;;;;;;19.00;44.70;;;;;;5074874;28;19912;-58
2022/05/24 12:27:27;;;;;;;;;;;19.00;44.80;;;;;;5052691;28;19924;-58
2022/05/24 12:29:54;;;;;;;;;;;19.00;44.90;;;;;;5070199;28;19922;-58
2022/05/24 12:32:20;;;;;;;;;;;19.00;44.50;;;;;;5061250;28;19939;-58
2022/05/24 12:34:46;;;;;;;;;;;19.00;44.30;;;;;;5066392;28;20580;-59
2022/05/24 12:37:21;;;;;;;;;;;19.00;44.20;;;;;;5061275;28;19918;-58
2022/05/24 12:40:17;;;;;;;;;;;19.00;44.10;;;;;;5065672;28;19916;-59
2022/05/24 12:42:50;;;;;;;;;;;19.00;44.10;;;;;;5048667;28;20046;-59
2022/05/24 12:45:22;;;;;;;;;;;19.00;44.10;;;;;;5063684;28;19953;-59
2022/05/24 12:47:52;;;;;;;;;;;19.00;43.90;;;;;;5058183;28;20552;-58
2022/05/24 12:50:26;;;;;;;;;;;19.00;43.70;;;;;;5068732;28;19955;-58
2022/05/24 12:52:56;;;;;;;;;;;19.00;44.00;;;;;;5061931;28;20054;-59
2022/05/24 12:58:11;;;;;;;;;;;19.00;44.30;;;;;;5065428;28;19961;-59
2022/05/24 13:00:36;;;;;;;;;;;19.00;44.50;;;;;;5062694;28;20585;-58
2022/05/24 13:03:02;;;;;;;;;;;19.00;44.00;;;;;;5066405;28;19922;-59
2022/05/24 13:05:34;;;;;;;;;;;19.00;44.00;;;;;;5061070;28;19912;-58
2022/05/24 13:08:01;;;;;;;;;;;19.00;43.80;;;;;;5066423;28;19927;-59
2022/05/24 13:10:27;;;;;;;;;;;19.10;43.60;;;;;;5069304;28;20379;-59
2022/05/24 13:12:56;;;;;;;;;;;19.10;43.80;;;;;;5065658;28;19935;-60
2022/05/24 13:15:28;;;;;;;;;;;19.10;43.70;;;;;;5066880;28;20573;-59
2022/05/24 13:17:56;;;;;;;;;;;19.10;43.70;;;;;;5064885;28;19922;-61
2022/05/24 13:20:21;;;;;;;;;;;19.10;43.60;;;;;;5061730;28;19927;-59
2022/05/24 13:22:50;;;;;;;;;;;19.10;43.60;;;;;;5072360;28;19916;-58
2022/05/24 13:25:26;;;;;;;;;;;19.10;43.90;;;;;;5072443;28;19957;-57
2022/05/24 13:27:54;;;;;;;;;;;19.10;43.40;;;;;;5067854;28;19993;-59
2022/05/24 13:33:34;;;;;;;;;;;19.10;43.50;;;;;;5067893;28;19931;-58
2022/05/24 13:36:18;;;;;;;;;;;19.10;43.50;;;;;;5066303;28;19922;-58
2022/05/24 13:38:46;;;;;;;;;;;19.10;43.70;;;;;;5070018;28;19930;-58
2022/05/24 13:41:12;;;;;;;;;;;19.20;44.10;;;;;;5072902;28;19912;-60
2022/05/24 13:43:42;;;;;;;;;;;19.20;43.30;;;;;;5071257;28;20792;-58
2022/05/24 13:46:21;;;;;;;;;;;19.10;43.20;;;;;;5070988;28;21798;-58
2022/05/24 13:48:55;;;;;;;;;;;19.20;43.70;;;;;;5073899;28;19957;-58
2022/05/24 13:51:27;;;;;;;;;;;19.20;43.90;;;;;;5075942;28;19946;-57
2022/05/24 13:53:54;;;;;;;;;;;19.20;43.30;;;;;;5074904;28;19989;-58
2022/05/24 13:56:22;;;;;;;;;;;19.20;43.40;;;;;;5071452;28;19973;-58
2022/05/24 13:58:49;;;;;;;;;;;19.20;43.30;;;;;;5073904;28;20012;-58
2022/05/24 14:01:26;;;;;;;;;;;19.20;43.40;;;;;;5068194;28;19916;-58
2022/05/24 14:03:54;;;;;;;;;;;19.20;43.10;;;;;;5075549;28;19914;-59
2022/05/24 14:06:21;;;;;;;;;;;19.20;43.00;;;;;;5080546;28;19912;-59
2022/05/24 14:08:49;;;;;;;;;;;19.20;42.60;;;;;;5080484;28;19911;-59
2022/05/24 14:11:17;;;;;;;;;;;19.20;42.80;;;;;;5076478;28;19916;-59
2022/05/24 14:13:43;;;;;;;;;;;19.30;43.00;;;;;;5077458;28;19964;-58
2022/05/24 14:16:09;;;;;;;;;;;19.30;43.10;;;;;;5074450;28;19912;-59
2022/05/24 14:18:35;;;;;;;;;;;19.30;43.30;;;;;;5079115;28;20875;-59
2022/05/24 14:21:01;;;;;;;;;;;19.30;42.90;;;;;;5072343;28;19916;-58
2022/05/24 14:23:28;;;;;;;;;;;19.30;42.60;;;;;;5075325;28;19920;-59
2022/05/24 14:25:53;;;;;;;;;;;19.30;42.50;;;;;;5071934;28;19920;-58
2022/05/24 14:28:22;;;;;;;;;;;19.30;42.60;;;;;;5070762;28;19965;-58
2022/05/24 14:30:48;;;;;;;;;;;19.30;42.40;;;;;;5069019;28;19973;-60
2022/05/24 14:33:15;;;;;;;;;;;19.30;42.50;;;;;;5075417;28;19994;-58
2022/05/24 14:35:41;;;;;;;;;;;19.40;42.60;;;;;;5073474;28;19930;-57
2022/05/24 14:38:07;;;;;;;;;;;19.40;42.60;;;;;;5075138;28;19917;-59
2022/05/24 14:40:38;;;;;;;;;;;19.40;42.50;;;;;;5076416;28;20023;-59
2022/05/24 14:43:05;;;;;;;;;;;19.40;42.60;;;;;;5063224;28;19915;-59
2022/05/24 14:45:30;;;;;;;;;;;19.50;42.90;;;;;;5075932;28;19939;-59
2022/05/24 14:47:56;;;;;;;;;;;19.50;43.10;;;;;;5074313;28;20045;-59
2022/05/24 14:50:21;;;;;;;;;;;19.50;43.00;;;;;;5082154;28;19915;-60
2022/05/24 14:52:47;;;;;;;;;;;19.50;42.80;;;;;;5079851;28;19920;-59
2022/05/24 14:55:23;;;;;;;;;;;19.50;43.00;;;;;;5076645;28;19916;-59
2022/05/24 14:57:49;;;;;;;;;;;19.50;43.20;;;;;;5073450;28;19919;-59
2022/05/24 15:00:15;;;;;;;;;;;19.60;43.40;;;;;;5075517;28;19912;-58
2022/05/24 15:02:40;;;;;;;;;;;19.50;43.40;;;;;;5076108;28;19912;-58
2022/05/24 15:05:08;;;;;;;;;;;19.60;43.60;;;;;;5077920;28;19912;-58